createdAt,value
2023-12-12T00:02:10.994Z,8.06
2023-12-12T00:04:39.275Z,8.19
2023-12-12T00:07:06.512Z,8.19
2023-12-12T00:09:33.578Z,8.24
2023-12-12T00:12:00.599Z,8.25
2023-12-12T00:14:27.670Z,8.29
2023-12-12T00:16:57.404Z,8.35
2023-12-12T00:19:24.464Z,8.41
2023-12-12T00:21:51.746Z,8.36
2023-12-12T00:24:18.894Z,8.28
2023-12-12T00:26:45.805Z,8.25
2023-12-12T00:29:12.817Z,8.30
2023-12-12T00:31:40.039Z,8.32
2023-12-12T00:34:07.211Z,8.26
2023-12-12T00:36:34.523Z,8.28
2023-12-12T00:39:01.903Z,8.24
2023-12-12T00:41:36.279Z,8.23
2023-12-12T00:44:03.757Z,8.21
2023-12-12T00:46:30.764Z,8.21
2023-12-12T00:48:57.806Z,8.15
2023-12-12T00:51:25.034Z,8.18
2023-12-12T00:53:51.866Z,8.15
2023-12-12T00:56:18.851Z,8.22
2023-12-12T00:58:45.850Z,8.29
2023-12-12T01:01:15.526Z,8.23
2023-12-12T01:03:42.771Z,8.27
2023-12-12T01:06:10.360Z,8.28
2023-12-12T01:08:37.292Z,8.30
2023-12-12T01:11:04.412Z,8.42
2023-12-12T01:13:31.508Z,8.43
2023-12-12T01:15:58.586Z,8.51
2023-12-12T01:18:25.610Z,8.50
2023-12-12T01:20:52.766Z,8.46
2023-12-12T01:23:19.748Z,8.49
2023-12-12T01:25:46.689Z,8.35
2023-12-12T01:28:13.814Z,8.49
2023-12-12T01:30:40.870Z,8.43
2023-12-12T01:33:07.957Z,8.46
2023-12-12T01:35:34.854Z,8.47
2023-12-12T01:38:02.109Z,8.39
2023-12-12T01:40:29.604Z,8.47
2023-12-12T01:43:06.949Z,8.50
2023-12-12T01:45:34.576Z,8.43
2023-12-12T01:48:02.180Z,8.46
2023-12-12T01:50:29.391Z,8.50
2023-12-12T01:52:57.414Z,8.52
2023-12-12T01:55:24.979Z,8.50
2023-12-12T01:57:52.330Z,8.50
2023-12-12T02:03:00.810Z,8.60
2023-12-12T02:05:30.854Z,8.57
2023-12-12T02:08:00.058Z,8.58
2023-12-12T02:10:27.866Z,8.53
2023-12-12T02:12:58.215Z,8.56
2023-12-12T02:15:25.304Z,8.66
2023-12-12T02:17:52.478Z,8.66
2023-12-12T02:20:19.644Z,8.62
2023-12-12T02:22:46.793Z,8.68
2023-12-12T02:25:17.261Z,8.67
2023-12-12T02:27:44.836Z,8.62
2023-12-12T02:30:13.552Z,8.57
2023-12-12T02:32:40.768Z,8.62
2023-12-12T02:35:08.252Z,8.61
2023-12-12T02:37:35.742Z,8.54
2023-12-12T02:40:03.125Z,8.60
2023-12-12T02:42:30.456Z,8.58
2023-12-12T02:44:58.567Z,8.60
2023-12-12T02:47:25.873Z,8.64
2023-12-12T02:49:53.166Z,8.61
2023-12-12T02:52:20.629Z,8.57
2023-12-12T02:54:47.627Z,8.63
2023-12-12T02:57:14.710Z,8.64
2023-12-12T02:59:42.027Z,8.58
2023-12-12T03:02:09.075Z,8.61
2023-12-12T03:04:36.237Z,8.63
2023-12-12T03:07:03.388Z,8.62
2023-12-12T03:09:30.531Z,8.70
2023-12-12T03:11:58.650Z,8.70
2023-12-12T03:14:31.734Z,8.79
2023-12-12T03:16:59.403Z,8.71
2023-12-12T03:19:26.832Z,8.82
2023-12-12T03:21:54.590Z,8.79
2023-12-12T03:24:21.864Z,8.75
2023-12-12T03:26:49.032Z,8.84
2023-12-12T03:29:16.100Z,8.87
2023-12-12T03:31:43.030Z,8.81
2023-12-12T03:34:10.068Z,8.81
2023-12-12T03:36:37.220Z,8.87
2023-12-12T03:39:04.221Z,8.88
2023-12-12T03:41:31.991Z,8.94
2023-12-12T03:43:58.974Z,8.95
2023-12-12T03:46:26.509Z,8.94
2023-12-12T03:48:53.536Z,8.92
2023-12-12T03:51:21.392Z,8.95
2023-12-12T03:53:48.331Z,8.87
2023-12-12T03:56:15.461Z,8.87
2023-12-12T03:58:42.771Z,8.88
2023-12-12T05:04:10.371Z,8.86
2023-12-12T05:06:37.373Z,8.89
2023-12-12T05:09:05.389Z,8.97
2023-12-12T05:11:32.382Z,8.91
2023-12-12T05:13:59.677Z,8.95
2023-12-12T05:16:31.843Z,8.90
2023-12-12T05:19:01.883Z,8.84
2023-12-12T05:21:29.113Z,8.75
2023-12-12T05:23:56.042Z,8.81
2023-12-12T05:26:23.353Z,8.88
2023-12-12T05:28:50.318Z,8.87
2023-12-12T05:31:17.869Z,8.85
2023-12-12T05:33:45.273Z,8.86
2023-12-12T05:36:12.311Z,8.84
2023-12-12T05:38:40.430Z,8.91
2023-12-12T05:41:08.118Z,8.91
2023-12-12T05:43:35.699Z,8.90
2023-12-12T05:46:04.722Z,8.90
2023-12-12T05:48:32.269Z,8.85
2023-12-12T05:50:59.289Z,8.91
2023-12-12T05:53:28.243Z,8.97
2023-12-12T05:55:57.547Z,8.99
2023-12-12T05:58:24.890Z,8.94
2023-12-12T06:00:53.254Z,9.06
2023-12-12T06:03:20.559Z,9.10
2023-12-12T06:05:47.530Z,9.09
2023-12-12T06:08:15.014Z,9.04
2023-12-12T06:10:42.153Z,9.05
2023-12-12T06:13:10.250Z,9.00
2023-12-12T06:15:37.283Z,9.04
2023-12-12T06:18:04.374Z,9.14
2023-12-12T06:20:33.856Z,9.13
2023-12-12T06:23:01.088Z,9.05
2023-12-12T06:25:28.365Z,9.12
2023-12-12T06:27:55.508Z,9.15
2023-12-12T06:30:22.636Z,9.19
2023-12-12T06:32:49.875Z,9.13
2023-12-12T06:35:18.474Z,9.20
2023-12-12T06:37:46.085Z,9.24
2023-12-12T06:40:14.985Z,9.30
2023-12-12T06:42:51.119Z,9.35
2023-12-12T06:45:18.011Z,9.31
2023-12-12T06:47:45.044Z,9.42
2023-12-12T06:50:13.092Z,9.45
2023-12-12T06:52:40.221Z,9.67
2023-12-12T06:55:07.519Z,9.83
2023-12-12T06:57:34.760Z,10.31
2023-12-12T08:04:23.012Z,11.08
2023-12-12T08:06:50.119Z,11.08
2023-12-12T08:09:16.973Z,11.07
2023-12-12T08:11:44.048Z,11.13
2023-12-12T08:14:11.221Z,11.11
2023-12-12T08:16:39.329Z,10.98
2023-12-12T08:19:07.589Z,11.30
2023-12-12T08:21:36.165Z,11.39
2023-12-12T08:24:04.450Z,11.55
2023-12-12T08:26:31.522Z,11.65
2023-12-12T08:28:58.390Z,11.95
2023-12-12T08:31:25.536Z,12.05
2023-12-12T08:33:54.891Z,12.13
2023-12-12T08:36:28.466Z,12.46
2023-12-12T08:38:55.432Z,12.65
2023-12-12T08:41:34.871Z,13.44
2023-12-12T08:44:02.024Z,13.50
2023-12-12T08:46:31.027Z,13.76
2023-12-12T08:48:58.876Z,13.61
2023-12-12T08:51:29.907Z,13.53
2023-12-12T08:54:05.132Z,13.46
2023-12-12T08:56:40.184Z,13.42
2023-12-12T08:59:08.119Z,13.62
2023-12-12T09:01:35.221Z,14.58
2023-12-12T09:04:02.351Z,14.11
2023-12-12T09:06:29.953Z,13.78
2023-12-12T09:08:56.980Z,13.56
2023-12-12T09:11:24.970Z,13.33
2023-12-12T09:13:52.215Z,13.14
2023-12-12T09:16:19.467Z,13.10
2023-12-12T09:18:46.599Z,13.05
2023-12-12T09:21:13.924Z,13.04
2023-12-12T09:23:43.396Z,13.07
2023-12-12T09:26:20.160Z,13.80
2023-12-12T09:28:48.665Z,14.73
2023-12-12T09:31:15.833Z,15.43
2023-12-12T09:33:43.023Z,16.04
2023-12-12T09:36:11.047Z,16.54
2023-12-12T09:38:38.426Z,16.84
2023-12-12T09:41:16.899Z,17.16
2023-12-12T09:43:46.427Z,17.61
2023-12-12T09:46:14.041Z,17.81
2023-12-12T09:48:54.117Z,17.86
2023-12-12T09:51:22.450Z,18.19
2023-12-12T09:53:50.309Z,18.55
2023-12-12T09:56:41.565Z,18.49
2023-12-12T09:59:09.483Z,18.45
2023-12-12T10:01:37.095Z,18.52
2023-12-12T10:04:08.200Z,17.83
2023-12-12T10:06:43.704Z,17.51
2023-12-12T10:09:15.393Z,17.09
2023-12-12T10:11:42.472Z,16.46
2023-12-12T10:14:10.400Z,16.21
2023-12-12T10:16:37.367Z,15.95
2023-12-12T10:19:12.908Z,16.24
2023-12-12T10:21:40.112Z,16.87
2023-12-12T10:24:12.694Z,17.18
2023-12-12T10:26:40.221Z,17.52
2023-12-12T10:29:07.497Z,17.82
2023-12-12T10:31:36.955Z,18.23
2023-12-12T10:34:04.850Z,18.51
2023-12-12T10:36:32.509Z,18.50
2023-12-12T10:39:21.437Z,18.46
2023-12-12T10:41:58.538Z,18.03
2023-12-12T10:44:34.985Z,18.26
2023-12-12T10:47:05.616Z,18.11
2023-12-12T10:49:34.346Z,18.45
2023-12-12T10:52:04.916Z,18.60
2023-12-12T10:54:35.125Z,18.50
2023-12-12T10:57:11.510Z,18.27
2023-12-12T10:59:58.729Z,18.75
2023-12-12T11:02:29.010Z,18.90
2023-12-12T11:04:57.258Z,18.76
2023-12-12T11:07:24.717Z,18.75
2023-12-12T11:09:52.253Z,18.81
2023-12-12T11:12:22.028Z,18.37
2023-12-12T11:14:49.419Z,18.28
2023-12-12T11:17:16.539Z,18.52
2023-12-12T11:19:45.082Z,18.35
2023-12-12T11:22:43.661Z,17.82
2023-12-12T11:25:19.457Z,18.08
2023-12-12T11:27:49.295Z,18.04
2023-12-12T11:30:20.746Z,18.05
2023-12-12T11:32:48.801Z,18.01
2023-12-12T11:35:27.485Z,17.92
2023-12-12T11:37:58.043Z,17.82
2023-12-12T11:40:29.132Z,17.85
2023-12-12T11:43:25.445Z,18.03
2023-12-12T11:45:54.302Z,18.28
2023-12-12T11:48:21.505Z,17.85
2023-12-12T11:50:48.676Z,17.90
2023-12-12T11:53:44.198Z,17.89
2023-12-12T11:56:11.495Z,17.90
2023-12-12T11:58:39.493Z,17.81
2023-12-12T12:04:31.333Z,17.47
2023-12-12T12:06:58.445Z,17.33
2023-12-12T12:09:25.701Z,17.26
2023-12-12T12:11:55.382Z,17.06
2023-12-12T12:14:23.823Z,17.06
2023-12-12T12:16:54.673Z,16.77
2023-12-12T12:19:32.468Z,16.67
2023-12-12T12:22:14.566Z,16.50
2023-12-12T12:24:45.822Z,16.51
2023-12-12T12:27:14.183Z,16.31
2023-12-12T12:29:41.789Z,16.29
2023-12-12T12:32:13.361Z,15.97
2023-12-12T12:34:40.704Z,16.04
2023-12-12T12:37:08.612Z,16.04
2023-12-12T12:39:43.925Z,15.98
2023-12-12T12:42:11.130Z,16.04
2023-12-12T12:44:42.963Z,15.88
2023-12-12T12:47:11.491Z,15.83
2023-12-12T12:49:38.710Z,15.82
2023-12-12T12:52:06.336Z,15.85
2023-12-12T12:54:33.363Z,15.94
2023-12-12T12:57:00.263Z,15.90
2023-12-12T12:59:27.783Z,15.84
2023-12-12T13:01:55.216Z,16.11
2023-12-12T13:04:22.384Z,16.20
2023-12-12T13:06:49.679Z,16.25
2023-12-12T13:09:19.395Z,16.12
2023-12-12T13:11:46.406Z,15.93
2023-12-12T13:14:21.554Z,15.67
2023-12-12T13:16:48.870Z,15.53
2023-12-12T13:19:16.460Z,15.57
2023-12-12T13:21:44.267Z,15.47
2023-12-12T13:24:11.222Z,15.35
2023-12-12T13:26:38.609Z,15.29
2023-12-12T13:29:05.557Z,15.22
2023-12-12T13:31:33.992Z,15.19
2023-12-12T13:34:04.045Z,15.25
2023-12-12T13:36:33.091Z,15.20
2023-12-12T13:39:00.473Z,15.16
2023-12-12T13:41:27.652Z,15.13
2023-12-12T13:43:54.626Z,15.12
2023-12-12T13:46:22.050Z,15.18
2023-12-12T13:48:49.303Z,15.22
2023-12-12T13:51:19.027Z,15.09
2023-12-12T13:53:50.919Z,15.05
2023-12-12T13:56:19.053Z,14.97
2023-12-12T13:58:54.485Z,14.83
2023-12-12T14:01:29.256Z,14.84
2023-12-12T14:03:56.673Z,14.81
2023-12-12T14:06:23.641Z,14.80
2023-12-12T14:08:51.955Z,14.76
2023-12-12T14:11:25.268Z,14.75
2023-12-12T14:13:52.822Z,14.67
2023-12-12T14:16:27.412Z,14.62
2023-12-12T14:18:58.082Z,14.55
2023-12-12T14:21:25.225Z,14.44
2023-12-12T14:23:52.257Z,14.44
2023-12-12T14:26:22.525Z,14.41
2023-12-12T14:28:55.437Z,14.39
2023-12-12T14:31:23.204Z,14.36
2023-12-12T14:33:50.677Z,14.30
2023-12-12T14:36:18.807Z,14.24
2023-12-12T14:38:46.459Z,14.22
2023-12-12T14:41:13.793Z,14.11
2023-12-12T14:43:48.126Z,13.98
2023-12-12T14:46:16.573Z,13.96
2023-12-12T14:48:44.688Z,13.88
2023-12-12T14:51:14.193Z,13.90
2023-12-12T14:53:41.578Z,13.86
2023-12-12T14:56:11.796Z,13.81
2023-12-12T14:58:41.322Z,13.74
2023-12-12T15:01:14.739Z,13.66
2023-12-12T15:03:43.653Z,13.67
2023-12-12T15:06:15.956Z,13.69
2023-12-12T15:08:43.106Z,13.32
2023-12-12T15:11:10.131Z,13.42
2023-12-12T15:13:37.381Z,13.34
2023-12-12T15:16:05.245Z,13.16
2023-12-12T15:18:32.555Z,13.17
2023-12-12T15:20:59.835Z,13.21
2023-12-12T15:23:26.754Z,13.19
2023-12-12T15:25:54.003Z,13.16
2023-12-12T15:28:25.587Z,13.06
2023-12-12T15:31:07.306Z,13.05
2023-12-12T15:33:37.345Z,12.92
2023-12-12T15:36:08.991Z,12.70
2023-12-12T15:38:36.122Z,12.58
2023-12-12T15:41:05.610Z,12.48
2023-12-12T15:43:35.145Z,12.29
2023-12-12T15:46:08.442Z,12.23
2023-12-12T15:48:42.469Z,12.12
2023-12-12T15:51:18.068Z,12.06
2023-12-12T15:57:29.351Z,11.80
2023-12-12T16:04:02.067Z,11.67
2023-12-12T16:06:29.393Z,11.72
2023-12-12T16:08:56.999Z,11.72
2023-12-12T16:11:31.578Z,11.57
2023-12-12T16:14:03.082Z,11.59
2023-12-12T16:16:34.664Z,11.57
2023-12-12T16:23:11.750Z,11.62
2023-12-12T16:29:23.915Z,11.63
2023-12-12T16:32:43.668Z,12.26
2023-12-12T16:35:55.866Z,11.92
2023-12-12T16:38:41.609Z,11.66
2023-12-12T16:41:13.913Z,11.61
2023-12-12T16:43:48.239Z,11.44
2023-12-12T16:46:24.424Z,11.34
2023-12-12T16:49:05.342Z,11.23
2023-12-12T16:51:37.615Z,11.10
2023-12-12T16:54:37.591Z,10.92
2023-12-12T16:57:11.266Z,10.98
2023-12-12T16:59:39.414Z,11.02
2023-12-12T17:02:09.319Z,11.12
2023-12-12T17:04:37.042Z,11.01
2023-12-12T17:07:05.367Z,11.04
2023-12-12T17:09:55.151Z,11.06
2023-12-12T17:16:20.713Z,11.01
2023-12-12T17:18:55.501Z,10.94
2023-12-12T17:21:44.209Z,10.82
2023-12-12T17:24:12.175Z,11.05
2023-12-12T17:26:39.853Z,11.08
2023-12-12T17:29:08.247Z,11.00
2023-12-12T17:31:35.714Z,11.10
2023-12-12T17:34:03.229Z,10.94
2023-12-12T17:36:45.421Z,10.97
2023-12-12T17:39:16.318Z,10.93
2023-12-12T17:41:52.116Z,10.87
2023-12-12T17:44:28.362Z,10.83
2023-12-12T17:47:15.952Z,10.80
2023-12-12T17:49:44.036Z,10.97
2023-12-12T17:52:18.171Z,10.86
2023-12-12T17:54:45.391Z,10.88
2023-12-12T17:57:21.152Z,10.83
2023-12-12T17:59:59.139Z,10.86
2023-12-12T18:02:26.350Z,10.82
2023-12-12T18:05:29.411Z,10.67
2023-12-12T18:07:56.965Z,10.59
2023-12-12T18:10:35.566Z,10.45
2023-12-12T18:13:02.714Z,10.38
2023-12-12T18:15:29.639Z,10.42
2023-12-12T18:17:58.925Z,10.28
2023-12-12T18:20:27.790Z,10.20
2023-12-12T18:22:58.802Z,10.26
2023-12-12T18:25:28.023Z,10.23
2023-12-12T18:28:00.101Z,10.13
2023-12-12T18:30:33.584Z,10.13
2023-12-12T18:33:04.057Z,10.10
2023-12-12T18:35:44.380Z,10.03
2023-12-12T18:38:19.097Z,10.17
2023-12-12T18:40:56.391Z,10.22
2023-12-12T18:43:24.171Z,10.26
2023-12-12T18:46:00.329Z,10.94
2023-12-12T18:48:27.851Z,10.65
2023-12-12T18:50:55.215Z,10.51
2023-12-12T18:53:22.270Z,10.48
2023-12-12T18:55:49.283Z,10.49
2023-12-12T18:58:16.552Z,10.43
2023-12-12T19:00:45.637Z,10.42
2023-12-12T19:03:15.194Z,10.34
2023-12-12T19:05:43.531Z,10.40
2023-12-12T19:08:11.453Z,10.38
2023-12-12T19:10:38.926Z,10.35
2023-12-12T19:13:06.189Z,10.35
2023-12-12T19:15:33.561Z,10.39
2023-12-12T19:18:00.559Z,10.34
2023-12-12T19:20:27.793Z,10.40
2023-12-12T19:23:00.289Z,10.30
2023-12-12T19:25:28.772Z,10.38
2023-12-12T19:27:56.002Z,10.29
2023-12-12T19:30:24.334Z,10.36
2023-12-12T19:32:51.397Z,10.29
2023-12-12T19:35:19.039Z,10.37
2023-12-12T19:37:49.942Z,10.36
2023-12-12T19:40:21.448Z,10.27
2023-12-12T19:42:49.364Z,10.27
2023-12-12T19:45:21.407Z,10.27
2023-12-12T19:47:48.511Z,10.20
2023-12-12T19:50:16.837Z,10.20
2023-12-12T19:52:52.509Z,10.07
2023-12-12T19:55:20.308Z,10.10
2023-12-12T19:57:47.529Z,10.10
2023-12-12T20:04:36.215Z,10.09
2023-12-12T20:07:17.446Z,10.05
2023-12-12T20:09:46.531Z,10.01
2023-12-12T20:12:13.473Z,10.06
2023-12-12T20:14:40.383Z,9.95
2023-12-12T20:17:07.349Z,10.01
2023-12-12T20:19:34.457Z,10.04
2023-12-12T20:22:01.385Z,10.12
2023-12-12T20:24:31.441Z,10.09
2023-12-12T20:27:02.647Z,10.21
2023-12-12T20:29:37.228Z,10.17
2023-12-12T20:32:04.407Z,10.12
2023-12-12T20:34:31.461Z,10.09
2023-12-12T20:36:58.635Z,10.03
2023-12-12T20:39:25.959Z,10.09
2023-12-12T20:41:52.794Z,10.13
2023-12-12T20:44:19.683Z,10.22
2023-12-12T20:46:46.680Z,10.25
2023-12-12T20:49:14.181Z,10.21
2023-12-12T20:51:44.160Z,10.26
2023-12-12T20:54:12.569Z,10.38
2023-12-12T20:56:42.959Z,10.34
2023-12-12T20:59:11.802Z,10.35
2023-12-12T21:01:38.755Z,10.41
2023-12-12T21:04:05.887Z,10.41
2023-12-12T21:06:57.778Z,10.48
2023-12-12T21:09:48.097Z,10.45
2023-12-12T21:12:21.105Z,10.49
2023-12-12T21:14:48.215Z,10.48
2023-12-12T21:17:36.002Z,10.48
2023-12-12T21:20:10.438Z,10.55
2023-12-12T21:22:43.565Z,10.51
2023-12-12T21:25:13.216Z,10.50
2023-12-12T21:28:02.913Z,10.46
2023-12-12T21:30:59.719Z,10.42
2023-12-12T21:37:37.656Z,10.31
2023-12-12T21:40:29.391Z,10.18
2023-12-12T21:43:08.492Z,10.11
2023-12-12T21:45:42.522Z,10.04
2023-12-12T21:48:09.730Z,9.97
2023-12-12T21:50:36.901Z,9.91
2023-12-12T21:53:03.891Z,9.92
2023-12-12T21:55:30.849Z,9.98
2023-12-12T21:57:58.085Z,9.86
2023-12-12T22:00:26.194Z,9.95
2023-12-12T22:02:53.172Z,9.93
2023-12-12T22:05:20.088Z,9.85
2023-12-12T22:07:55.283Z,9.86
2023-12-12T22:10:22.382Z,9.81
2023-12-12T22:12:50.310Z,9.82
2023-12-12T22:15:18.367Z,9.81
2023-12-12T22:17:47.345Z,9.75
2023-12-12T22:20:17.854Z,9.73
2023-12-12T22:23:09.701Z,9.64
2023-12-12T22:25:43.942Z,9.60
2023-12-12T22:28:16.790Z,9.61
2023-12-12T22:30:43.711Z,9.62
2023-12-12T22:33:26.005Z,9.56
2023-12-12T22:36:23.946Z,9.59
2023-12-12T22:39:08.472Z,9.53
2023-12-12T22:41:45.080Z,9.37
2023-12-12T22:44:23.753Z,9.41
